Time,TemperatureF,DewpointF,PressureIn,WindDirection,WindDirectionDegrees,WindSpeedMPH,WindSpeedGustMPH,Humidity,HourlyPrecipIn,Conditions,Clouds,dailyrainin,SolarRadiationWatts/m^2,SoftwareType,DateUTC
2013-01-28 00:14:00,24.4,14.0,29.52,South,184,1.0,8.0,65,0.00,,,0.00,0,weatherlink.com 1.10,2013-01-28 07:14:00,
2013-01-28 00:29:00,24.8,15.0,29.53,WSW,251,3.0,6.0,67,0.00,,,0.00,0,weatherlink.com 1.10,2013-01-28 07:29:00,
2013-01-28 00:44:00,25.4,16.0,29.53,WSW,250,0.0,7.0,68,0.00,,,0.00,0,weatherlink.com 1.10,2013-01-28 07:44:00,
2013-01-28 00:59:00,25.2,16.0,29.52,SSE,150,4.0,10.0,69,0.00,,,0.00,0,weatherlink.com 1.10,2013-01-28 07:59:00,
2013-01-28 01:14:00,25.3,17.0,29.52,West,272,3.0,8.0,71,0.00,,,0.00,0,weatherlink.com 1.10,2013-01-28 08:14:00,
2013-01-28 01:29:00,25.3,17.0,29.52,SW,234,1.0,9.0,71,0.00,,,0.00,0,weatherlink.com 1.10,2013-01-28 08:29:00,
2013-01-28 01:44:00,25.1,17.0,29.51,South,180,2.0,7.0,72,0.00,,,0.00,0,weatherlink.com 1.10,2013-01-28 08:44:00,
2013-01-28 02:00:00,25.2,17.0,29.51,SSE,155,3.0,10.0,72,0.00,,,0.00,0,weatherlink.com 1.10,2013-01-28 09:00:00,
2013-01-28 02:14:00,25.2,18.0,29.50,SSE,155,4.0,6.0,73,0.00,,,0.00,0,weatherlink.com 1.10,2013-01-28 09:14:00,
2013-01-28 02:30:00,25.4,18.0,29.50,SW,223,1.0,9.0,74,0.00,,,0.00,0,weatherlink.com 1.10,2013-01-28 09:30:00,
2013-01-28 02:45:00,25.8,18.0,29.49,WSW,253,3.0,8.0,73,0.00,,,0.00,0,weatherlink.com 1.10,2013-01-28 09:45:00,
2013-01-28 03:00:00,26.3,19.0,29.48,ESE,119,3.0,7.0,73,0.00,,,0.00,0,weatherlink.com 1.10,2013-01-28 10:00:00,
2013-01-28 03:15:00,26.3,19.0,29.49,NW,317,3.0,9.0,74,0.00,,,0.00,0,weatherlink.com 1.10,2013-01-28 10:15:00,
2013-01-28 03:30:00,26.0,19.0,29.48,South,182,4.0,11.0,76,0.00,,,0.00,0,weatherlink.com 1.10,2013-01-28 10:30:00,
2013-01-28 03:45:00,26.2,20.0,29.47,SW,221,2.0,11.0,76,0.00,,,0.00,0,weatherlink.com 1.10,2013-01-28 10:45:00,
2013-01-28 04:00:00,25.9,19.0,29.46,SSE,157,0.0,9.0,75,0.00,,,0.00,0,weatherlink.com 1.10,2013-01-28 11:00:00,
2013-01-28 04:15:00,25.2,19.0,29.46,SSE,161,5.0,7.0,76,0.00,,,0.00,0,weatherlink.com 1.10,2013-01-28 11:15:00,
2013-01-28 04:30:00,24.9,18.0,29.45,SSE,167,2.0,8.0,76,0.00,,,0.00,0,weatherlink.com 1.10,2013-01-28 11:30:00,
2013-01-28 04:45:00,24.6,18.0,29.44,South,178,1.0,7.0,76,0.00,,,0.00,0,weatherlink.com 1.10,2013-01-28 11:45:00,
2013-01-28 05:00:00,25.1,18.0,29.43,SE,138,2.0,11.0,75,0.00,,,0.00,0,weatherlink.com 1.10,2013-01-28 12:00:00,
2013-01-28 05:15:00,25.1,18.0,29.43,WSW,248,2.0,9.0,75,0.00,,,0.00,0,weatherlink.com 1.10,2013-01-28 12:15:00,
2013-01-28 05:30:00,25.6,19.0,29.43,SE,132,3.0,11.0,75,0.00,,,0.00,0,weatherlink.com 1.10,2013-01-28 12:30:00,
2013-01-28 05:45:00,26.3,19.0,29.42,SSE,161,4.0,10.0,75,0.00,,,0.00,0,weatherlink.com 1.10,2013-01-28 12:45:00,
2013-01-28 06:00:00,26.2,20.0,29.41,SSE,153,10.0,16.0,77,0.00,,,0.00,0,weatherlink.com 1.10,2013-01-28 13:00:00,
2013-01-28 06:15:00,25.8,20.0,29.41,South,184,11.0,15.0,78,0.00,,,0.00,0,weatherlink.com 1.10,2013-01-28 13:15:00,
2013-01-28 06:30:00,26.0,20.0,29.41,SSE,153,6.0,17.0,78,0.00,,,0.00,0,weatherlink.com 1.10,2013-01-28 13:30:00,
2013-01-28 06:45:00,26.2,21.0,29.41,SSE,161,8.0,15.0,79,0.00,,,0.00,0,weatherlink.com 1.10,2013-01-28 13:45:00,
2013-01-28 07:00:00,26.2,21.0,29.40,SSE,153,8.0,18.0,79,0.00,,,0.00,0,weatherlink.com 1.10,2013-01-28 14:00:00,
2013-01-28 07:15:00,26.4,21.0,29.40,South,171,8.0,21.0,80,0.00,,,0.00,5,weatherlink.com 1.10,2013-01-28 14:15:00,
2013-01-28 07:30:00,26.7,22.0,29.41,South,171,10.0,20.0,81,0.00,,,0.00,26,weatherlink.com 1.10,2013-01-28 14:30:00,
2013-01-28 07:45:00,27.1,22.0,29.40,SE,129,7.0,18.0,80,0.00,,,0.00,47,weatherlink.com 1.10,2013-01-28 14:45:00,
2013-01-28 08:00:00,27.0,22.0,29.40,SSE,148,12.0,18.0,80,0.00,,,0.00,72,weatherlink.com 1.10,2013-01-28 15:00:00,
2013-01-28 08:15:00,27.4,22.0,29.40,SE,130,7.0,13.0,79,0.00,,,0.00,79,weatherlink.com 1.10,2013-01-28 15:15:00,
2013-01-28 08:30:00,27.9,22.0,29.40,SE,138,3.0,11.0,78,0.00,,,0.00,132,weatherlink.com 1.10,2013-01-28 15:30:00,
2013-01-28 08:45:00,27.9,22.0,29.41,WSW,242,8.0,11.0,78,0.00,,,0.00,91,weatherlink.com 1.10,2013-01-28 15:45:00,
2013-01-28 09:00:00,27.9,22.0,29.41,South,171,6.0,11.0,78,0.00,,,0.00,93,weatherlink.com 1.10,2013-01-28 16:00:00,
2013-01-28 09:15:00,28.0,22.0,29.40,WNW,302,4.0,10.0,79,0.00,,,0.00,141,weatherlink.com 1.10,2013-01-28 16:15:00,
2013-01-28 09:31:00,28.9,23.0,29.40,WSW,242,3.0,7.0,78,0.00,,,0.00,199,weatherlink.com 1.10,2013-01-28 16:31:00,
2013-01-28 09:46:00,30.2,24.0,29.39,SSE,161,1.0,10.0,76,0.00,,,0.00,401,weatherlink.com 1.10,2013-01-28 16:46:00,
2013-01-28 10:01:00,31.9,23.0,29.39,South,183,2.0,9.0,69,0.00,,,0.00,313,weatherlink.com 1.10,2013-01-28 17:01:00,
2013-01-28 10:16:00,31.7,23.0,29.39,SW,227,3.0,7.0,69,0.00,,,0.00,394,weatherlink.com 1.10,2013-01-28 17:16:00,
2013-01-28 10:31:00,32.6,23.0,29.39,SSE,167,1.0,9.0,68,0.00,,,0.00,406,weatherlink.com 1.10,2013-01-28 17:31:00,
2013-01-28 10:46:00,32.3,22.0,29.38,South,179,5.0,13.0,67,0.00,,,0.00,378,weatherlink.com 1.10,2013-01-28 17:46:00,
2013-01-28 11:01:00,32.1,21.0,29.37,East,85,5.0,12.0,64,0.00,,,0.00,295,weatherlink.com 1.10,2013-01-28 18:01:00,
2013-01-28 11:16:00,32.1,21.0,29.37,SW,219,3.0,10.0,65,0.00,,,0.00,288,weatherlink.com 1.10,2013-01-28 18:16:00,
2013-01-28 11:31:00,32.0,21.0,29.37,SSW,198,4.0,14.0,64,0.00,,,0.00,301,weatherlink.com 1.10,2013-01-28 18:31:00,
2013-01-28 11:46:00,31.2,22.0,29.36,SW,236,6.0,16.0,69,0.00,,,0.00,292,weatherlink.com 1.10,2013-01-28 18:46:00,
2013-01-28 12:01:00,31.0,22.0,29.36,NW,316,1.0,17.0,70,0.00,,,0.00,315,weatherlink.com 1.10,2013-01-28 19:01:00,
2013-01-28 12:16:00,30.3,23.0,29.35,NW,317,3.0,14.0,74,0.00,,,0.00,181,weatherlink.com 1.10,2013-01-28 19:16:00,
2013-01-28 12:31:00,30.4,22.0,29.34,NNW,338,2.0,12.0,72,0.00,,,0.00,378,weatherlink.com 1.10,2013-01-28 19:31:00,
2013-01-28 12:46:00,30.8,21.0,29.32,SW,216,5.0,11.0,67,0.00,,,0.00,564,weatherlink.com 1.10,2013-01-28 19:46:00,
2013-01-28 13:01:00,32.8,23.0,29.31,NW,306,2.0,8.0,66,0.00,,,0.00,345,weatherlink.com 1.10,2013-01-28 20:01:00,
2013-01-28 13:16:00,34.2,21.0,29.29,ESE,109,7.0,12.0,60,0.00,,,0.00,707,weatherlink.com 1.10,2013-01-28 20:16:00,
2013-01-28 13:31:00,32.5,19.0,29.30,West,280,14.0,16.0,58,0.00,,,0.00,216,weatherlink.com 1.10,2013-01-28 20:31:00,
2013-01-28 13:46:00,30.8,22.0,29.30,West,276,6.0,21.0,71,0.00,,,0.00,473,weatherlink.com 1.10,2013-01-28 20:46:00,
2013-01-28 14:01:00,29.0,22.0,29.31,WSW,254,7.0,16.0,76,0.00,,,0.00,429,weatherlink.com 1.10,2013-01-28 21:01:00,
2013-01-28 14:16:00,27.7,22.0,29.33,West,281,3.0,14.0,79,0.00,,,0.00,214,weatherlink.com 1.10,2013-01-28 21:16:00,
2013-01-28 14:31:00,27.4,22.0,29.32,WSW,248,6.0,12.0,79,0.00,,,0.00,142,weatherlink.com 1.10,2013-01-28 21:31:00,
2013-01-28 14:46:00,25.6,20.0,29.34,WNW,282,2.0,12.0,79,0.00,,,0.00,183,weatherlink.com 1.10,2013-01-28 21:46:00,
2013-01-28 15:01:00,24.7,20.0,29.35,NW,309,5.0,9.0,81,0.00,,,0.00,132,weatherlink.com 1.10,2013-01-28 22:01:00,
2013-01-28 15:16:00,24.0,20.0,29.36,NNW,329,3.0,6.0,83,0.00,,,0.00,146,weatherlink.com 1.10,2013-01-28 22:16:00,
2013-01-28 15:31:00,24.3,19.0,29.37,NW,309,1.0,6.0,80,0.00,,,0.00,134,weatherlink.com 1.10,2013-01-28 22:31:00,
2013-01-28 15:46:00,24.1,18.0,29.39,WSW,257,0.0,8.0,78,0.00,,,0.00,100,weatherlink.com 1.10,2013-01-28 22:46:00,
2013-01-28 16:01:00,24.0,17.0,29.39,SW,236,1.0,9.0,75,0.00,,,0.00,74,weatherlink.com 1.10,2013-01-28 23:01:00,
2013-01-28 16:16:00,23.8,15.0,29.39,WNW,296,2.0,7.0,70,0.00,,,0.00,60,weatherlink.com 1.10,2013-01-28 23:16:00,
2013-01-28 16:31:00,23.4,14.0,29.39,West,267,2.0,8.0,68,0.00,,,0.00,23,weatherlink.com 1.10,2013-01-28 23:31:00,
2013-01-28 16:46:00,22.7,13.0,29.39,West,277,0.0,7.0,65,0.00,,,0.00,14,weatherlink.com 1.10,2013-01-28 23:46:00,
2013-01-28 17:01:00,22.1,13.0,29.40,West,274,0.0,6.0,69,0.00,,,0.00,7,weatherlink.com 1.10,2013-01-29 00:01:00,
2013-01-28 17:16:00,22.2,16.0,29.41,SW,227,0.0,6.0,77,0.00,,,0.00,0,weatherlink.com 1.10,2013-01-29 00:16:00,
2013-01-28 17:31:00,22.8,18.0,29.41,West,267,0.0,3.0,81,0.00,,,0.00,0,weatherlink.com 1.10,2013-01-29 00:31:00,
2013-01-28 17:46:00,22.3,17.0,29.41,WSW,255,1.0,5.0,79,0.01,,,0.01,0,weatherlink.com 1.10,2013-01-29 00:46:00,
2013-01-28 18:01:00,20.6,15.0,29.40,WNW,295,0.0,1.0,79,0.01,,,0.01,0,weatherlink.com 1.10,2013-01-29 01:01:00,
2013-01-28 18:17:00,19.1,14.0,29.41,SSW,200,1.0,2.0,81,0.01,,,0.01,0,weatherlink.com 1.10,2013-01-29 01:17:00,
2013-01-28 18:32:00,18.2,14.0,29.41,South,183,2.0,2.0,82,0.01,,,0.01,0,weatherlink.com 1.10,2013-01-29 01:32:00,
2013-01-28 18:47:00,17.5,14.0,29.42,South,182,0.0,2.0,84,0.00,,,0.01,0,weatherlink.com 1.10,2013-01-29 01:47:00,
2013-01-28 19:02:00,17.8,13.0,29.43,West,271,0.0,7.0,82,0.00,,,0.01,0,weatherlink.com 1.10,2013-01-29 02:02:00,
2013-01-28 19:17:00,18.0,13.0,29.43,SSW,212,0.0,6.0,82,0.00,,,0.01,0,weatherlink.com 1.10,2013-01-29 02:17:00,
2013-01-28 19:32:00,17.4,12.0,29.42,SSE,157,0.0,6.0,80,0.00,,,0.01,0,weatherlink.com 1.10,2013-01-29 02:32:00,
2013-01-28 19:47:00,15.9,11.0,29.43,WSW,238,0.0,7.0,79,0.00,,,0.01,0,weatherlink.com 1.10,2013-01-29 02:47:00,
2013-01-28 20:02:00,15.5,11.0,29.43,SSW,205,1.0,4.0,81,0.00,,,0.01,0,weatherlink.com 1.10,2013-01-29 03:02:00,
2013-01-28 20:17:00,15.9,11.0,29.43,West,261,1.0,4.0,81,0.00,,,0.01,0,weatherlink.com 1.10,2013-01-29 03:17:00,
2013-01-28 20:32:00,16.0,11.0,29.43,South,188,0.0,3.0,81,0.00,,,0.01,0,weatherlink.com 1.10,2013-01-29 03:32:00,
2013-01-28 20:47:00,15.7,11.0,29.43,SE,142,3.0,7.0,81,0.00,,,0.01,0,weatherlink.com 1.10,2013-01-29 03:47:00,
2013-01-28 21:02:00,14.5,9.0,29.43,SE,127,3.0,4.0,80,0.00,,,0.01,0,weatherlink.com 1.10,2013-01-29 04:02:00,
2013-01-28 21:17:00,13.7,8.0,29.43,SSE,159,1.0,5.0,77,0.00,,,0.01,0,weatherlink.com 1.10,2013-01-29 04:17:00,
2013-01-28 21:32:00,13.4,7.0,29.42,SSE,163,3.0,4.0,76,0.00,,,0.01,0,weatherlink.com 1.10,2013-01-29 04:32:00,
2013-01-28 21:47:00,13.3,7.0,29.43,SE,144,4.0,7.0,76,0.00,,,0.01,0,weatherlink.com 1.10,2013-01-29 04:47:00,
2013-01-28 22:17:00,14.4,8.0,29.43,SSE,149,4.0,6.0,75,0.00,,,0.01,0,weatherlink.com 1.10,2013-01-29 05:17:00,
2013-01-28 22:32:00,15.2,8.0,29.43,SSE,161,2.0,8.0,72,0.00,,,0.01,0,weatherlink.com 1.10,2013-01-29 05:32:00,
2013-01-28 22:47:00,15.2,7.0,29.43,SE,142,4.0,9.0,69,0.00,,,0.01,0,weatherlink.com 1.10,2013-01-29 05:47:00,
2013-01-28 23:02:00,15.2,6.0,29.43,SSE,155,3.0,8.0,68,0.00,,,0.01,0,weatherlink.com 1.10,2013-01-29 06:02:00,
2013-01-28 23:17:00,15.0,5.0,29.42,SSE,159,3.0,10.0,66,0.00,,,0.01,0,weatherlink.com 1.10,2013-01-29 06:17:00,
2013-01-28 23:32:00,14.5,4.0,29.42,SSW,193,1.0,8.0,64,0.00,,,0.01,0,weatherlink.com 1.10,2013-01-29 06:32:00,
2013-01-28 23:47:00,14.4,3.0,29.41,SSW,199,5.0,7.0,62,0.00,,,0.01,0,weatherlink.com 1.10,2013-01-29 06:47:00,